Time;durP1;ratioP1;P1;durP2;ratioP2;P2;SDS_P1;SDS_P2;PMS_P1;PMS_P2;Temp;Humidity;BMP_temperature;BMP_pressure;BME280_temperature;BME280_humidity;BME280_pressure;Samples;Min_cycle;Max_cycle;Signal;HPM_P1;HPM_P2
2022/01/04 05:33:02;;;;;;;7.25;3.92;;;6.10;92.80;;;;;;6153262;23;20101;-64
2022/01/04 05:35:28;;;;;;;8.10;3.90;;;6.00;92.90;;;;;;6184543;23;20033;-65
2022/01/04 05:37:54;;;;;;;7.95;4.10;;;5.90;92.90;;;;;;6184473;23;20044;-64
2022/01/04 05:40:20;;;;;;;7.60;4.20;;;5.90;93.10;;;;;;6184419;23;19997;-65
2022/01/04 05:42:45;;;;;;;5.85;3.45;;;5.90;93.30;;;;;;6184355;23;20096;-65
2022/01/04 05:45:11;;;;;;;5.63;3.35;;;5.80;93.40;;;;;;6184700;23;20009;-65
2022/01/04 05:47:37;;;;;;;6.78;3.78;;;5.90;93.60;;;;;;6158265;23;20095;-64
2022/01/04 05:50:05;;;;;;;7.38;4.05;;;5.80;93.90;;;;;;6157916;23;20032;-63
2022/01/04 05:52:32;;;;;;;7.05;3.88;;;5.90;93.60;;;;;;6184424;23;20005;-64
2022/01/04 05:54:58;;;;;;;8.43;4.10;;;5.90;93.60;;;;;;6184043;23;20072;-65
2022/01/04 05:57:24;;;;;;;7.40;3.88;;;6.00;93.50;;;;;;6184452;23;20424;-65
2022/01/04 05:59:49;;;;;;;7.65;4.55;;;6.00;93.50;;;;;;6184513;23;20011;-64
2022/01/04 06:02:15;;;;;;;7.72;3.97;;;6.00;93.50;;;;;;6184347;23;20001;-65
2022/01/04 06:04:41;;;;;;;7.50;3.97;;;6.00;93.40;;;;;;6184286;23;20012;-64
2022/01/04 06:07:07;;;;;;;7.38;4.40;;;6.10;93.20;;;;;;6184190;23;20005;-64
2022/01/04 06:09:41;;;;;;;9.88;5.50;;;6.10;93.20;;;;;;6184269;23;20409;-65
2022/01/04 06:14:53;;;;;;;9.10;4.97;;;6.20;93.10;;;;;;6183890;23;20340;-65
2022/01/04 06:17:21;;;;;;;10.23;5.60;;;6.10;93.10;;;;;;6184262;23;20005;-64
2022/01/04 06:19:47;;;;;;;10.73;5.30;;;6.20;93.10;;;;;;6183879;23;20011;-65
2022/01/04 06:22:12;;;;;;;9.38;5.72;;;6.20;93.00;;;;;;6183475;23;20032;-65
2022/01/04 06:24:38;;;;;;;10.75;5.90;;;6.20;93.10;;;;;;6157873;23;20016;-65
2022/01/04 06:27:08;;;;;;;10.23;5.65;;;6.20;93.10;;;;;;6184225;23;20005;-65
2022/01/04 06:29:34;;;;;;;8.98;5.65;;;6.20;93.10;;;;;;6183234;23;20032;-64
2022/01/04 06:32:00;;;;;;;9.13;5.72;;;6.20;93.20;;;;;;6183288;23;20013;-64
2022/01/04 06:34:26;;;;;;;9.32;6.00;;;6.20;93.20;;;;;;6184219;23;20067;-65
2022/01/04 06:36:51;;;;;;;9.70;6.32;;;6.20;93.10;;;;;;6157700;23;20033;-64
2022/01/04 06:39:17;;;;;;;11.23;6.50;;;6.20;93.00;;;;;;6183564;23;20020;-65
2022/01/04 06:41:43;;;;;;;10.20;6.00;;;6.30;93.00;;;;;;6183127;23;20005;-66
2022/01/04 06:44:08;;;;;;;11.30;6.75;;;6.30;93.00;;;;;;6156754;23;20013;-65
2022/01/04 06:46:34;;;;;;;10.70;6.75;;;6.30;93.10;;;;;;6183188;23;20428;-64
2022/01/04 06:49:00;;;;;;;11.05;6.65;;;6.30;93.20;;;;;;6183518;23;20001;-65
2022/01/04 06:51:26;;;;;;;12.32;6.72;;;6.30;93.20;;;;;;6183373;23;20293;-65
2022/01/04 06:53:51;;;;;;;12.48;6.85;;;6.30;93.30;;;;;;6183540;23;20029;-64
2022/01/04 06:56:17;;;;;;;14.10;9.32;;;6.20;93.30;;;;;;6183499;23;20004;-64
2022/01/04 06:58:43;;;;;;;12.73;7.47;;;6.20;93.40;;;;;;6183622;23;20413;-65
2022/01/04 07:01:09;;;;;;;12.13;7.30;;;6.20;93.50;;;;;;6156862;23;20083;-64
2022/01/04 07:03:34;;;;;;;13.48;9.45;;;6.20;93.60;;;;;;6183301;23;20005;-65
2022/01/04 07:06:00;;;;;;;19.88;13.13;;;6.20;93.80;;;;;;6183471;23;20332;-65
2022/01/04 07:08:26;;;;;;;17.08;11.43;;;6.10;94.00;;;;;;6183519;23;20011;-65
2022/01/04 07:10:52;;;;;;;18.23;11.20;;;6.10;94.20;;;;;;6183468;23;19997;-65
2022/01/04 07:13:18;;;;;;;21.30;13.88;;;6.10;94.50;;;;;;6183576;23;20009;-65
2022/01/04 07:15:46;;;;;;;22.60;14.18;;;6.00;94.70;;;;;;6183765;23;20009;-65
2022/01/04 07:18:11;;;;;;;19.33;13.27;;;6.00;95.00;;;;;;6157055;23;20815;-65
2022/01/04 07:20:37;;;;;;;19.33;12.90;;;6.00;95.10;;;;;;6157363;23;20001;-66
2022/01/04 07:23:03;;;;;;;16.38;11.40;;;6.00;95.20;;;;;;6183264;23;20015;-65
2022/01/04 07:25:29;;;;;;;19.50;11.88;;;6.00;95.30;;;;;;6183257;23;20246;-66
2022/01/04 07:27:54;;;;;;;21.90;12.30;;;6.00;95.30;;;;;;6183319;23;19997;-66
2022/01/04 07:30:20;;;;;;;27.63;15.60;;;6.00;95.30;;;;;;6182409;23;19998;-65
2022/01/04 07:32:46;;;;;;;17.25;11.20;;;6.10;95.10;;;;;;6183104;23;20401;-64
2022/01/04 07:35:12;;;;;;;14.07;9.15;;;6.00;95.10;;;;;;6183313;23;20001;-65
2022/01/04 07:37:38;;;;;;;17.42;10.70;;;6.10;95.00;;;;;;6182722;23;20001;-65
2022/01/04 07:40:04;;;;;;;16.58;9.90;;;6.10;95.10;;;;;;6183238;23;20029;-64
2022/01/04 07:42:30;;;;;;;16.38;10.27;;;6.10;95.10;;;;;;6183077;23;20012;-66
2022/01/04 07:44:56;;;;;;;17.17;10.65;;;6.10;95.20;;;;;;6183174;23;20005;-64
2022/01/04 07:47:21;;;;;;;15.05;9.75;;;6.10;95.10;;;;;;6183199;23;20001;-65
2022/01/04 07:49:47;;;;;;;18.25;11.40;;;6.10;95.00;;;;;;6183077;23;20001;-66
2022/01/04 07:52:13;;;;;;;19.98;11.85;;;6.10;94.90;;;;;;6183348;23;20448;-66
2022/01/04 07:54:38;;;;;;;14.93;10.13;;;6.20;95.00;;;;;;6182979;23;20011;-64
2022/01/04 07:57:04;;;;;;;13.73;8.75;;;6.20;94.80;;;;;;6183112;23;20012;-65
2022/01/04 07:59:31;;;;;;;13.40;8.88;;;6.20;94.80;;;;;;6182184;23;20013;-64
2022/01/04 08:01:57;;;;;;;13.13;8.43;;;6.30;94.50;;;;;;6182872;23;20016;-66
2022/01/04 08:04:23;;;;;;;13.07;8.55;;;6.30;94.40;;;;;;6183218;23;20005;-65
2022/01/04 08:06:48;;;;;;;12.65;8.48;;;6.30;94.20;;;;;;6183165;23;20008;-66
2022/01/04 08:09:14;;;;;;;13.27;8.10;;;6.30;94.20;;;;;;6156634;23;20056;-66
2022/01/04 08:11:39;;;;;;;12.18;7.60;;;6.30;93.90;;;;;;6156806;23;20340;-64
2022/01/04 08:14:05;;;;;;;12.77;8.00;;;6.30;93.90;;;;;;6183376;23;20337;-65
2022/01/04 08:16:31;;;;;;;12.38;8.38;;;6.40;93.80;;;;;;6183478;23;20001;-66
2022/01/04 08:18:57;;;;;;;11.98;7.60;;;6.50;93.90;;;;;;6182784;23;20008;-66
2022/01/04 08:21:23;;;;;;;14.20;8.90;;;6.50;93.40;;;;;;6183373;23;20057;-65
2022/01/04 08:23:48;;;;;;;11.27;7.35;;;6.60;93.60;;;;;;6182388;23;20080;-64
2022/01/04 08:26:16;;;;;;;12.02;7.53;;;6.70;93.20;;;;;;6183362;23;20004;-66
2022/01/04 08:28:41;;;;;;;10.73;7.32;;;6.80;92.90;;;;;;6183132;23;20001;-66
2022/01/04 08:31:07;;;;;;;11.10;7.28;;;6.80;92.50;;;;;;6184099;23;20347;-64
2022/01/04 08:33:33;;;;;;;11.25;7.00;;;6.90;92.20;;;;;;6185081;23;20090;-65
2022/01/04 08:35:58;;;;;;;11.50;6.97;;;6.80;92.10;;;;;;6158313;23;20091;-65
2022/01/04 08:38:24;;;;;;;11.88;7.40;;;6.90;92.10;;;;;;6184961;23;20391;-64
2022/01/04 08:40:50;;;;;;;11.55;7.22;;;6.90;91.80;;;;;;6184385;23;20421;-66
2022/01/04 08:43:16;;;;;;;10.23;6.90;;;6.90;91.80;;;;;;6184003;23;20015;-65
2022/01/04 08:45:42;;;;;;;10.85;7.30;;;6.90;91.60;;;;;;6158775;23;20001;-66
2022/01/04 08:48:08;;;;;;;10.63;7.20;;;6.90;91.60;;;;;;6185214;23;20325;-65
2022/01/04 08:50:33;;;;;;;11.05;7.18;;;6.90;91.60;;;;;;6184863;23;20127;-66
2022/01/04 08:52:59;;;;;;;13.50;9.52;;;7.00;91.50;;;;;;6184937;23;20001;-66
2022/01/04 08:55:25;;;;;;;15.23;9.70;;;7.00;91.30;;;;;;6184801;23;20012;-66
2022/01/04 08:57:51;;;;;;;12.45;7.90;;;7.00;91.20;;;;;;6184562;23;20076;-65
2022/01/04 09:00:17;;;;;;;11.25;7.22;;;7.00;91.30;;;;;;6183908;23;20068;-66
2022/01/04 09:02:43;;;;;;;10.90;7.20;;;7.00;90.90;;;;;;6184286;23;20005;-65
2022/01/04 09:05:10;;;;;;;9.98;7.00;;;7.10;90.80;;;;;;6184879;23;20397;-64
2022/01/04 09:07:36;;;;;;;10.60;7.00;;;7.10;90.90;;;;;;6184464;23;20032;-65
2022/01/04 09:10:04;;;;;;;11.27;7.45;;;7.10;90.80;;;;;;6158384;23;20413;-65
2022/01/04 09:20:57;;;;;;;11.38;6.78;;;7.30;90.10;;;;;;6185040;23;20012;-65
2022/01/04 09:23:23;;;;;;;14.65;9.48;;;7.20;90.10;;;;;;6183650;23;20005;-65
2022/01/04 09:25:52;;;;;;;11.93;7.13;;;7.30;90.10;;;;;;6184818;23;20052;-64
2022/01/04 09:28:19;;;;;;;9.30;5.95;;;7.30;90.10;;;;;;6184572;23;20432;-65
2022/01/04 09:30:47;;;;;;;9.27;5.97;;;7.30;89.30;;;;;;6184592;23;20081;-65
2022/01/04 09:33:13;;;;;;;8.77;5.40;;;7.30;89.00;;;;;;6184534;23;20053;-65
2022/01/04 09:35:39;;;;;;;8.85;5.75;;;7.40;88.80;;;;;;6184219;23;20001;-64
2022/01/04 09:38:06;;;;;;;10.63;5.95;;;7.50;89.10;;;;;;6184289;23;20059;-65
2022/01/04 09:40:33;;;;;;;11.95;6.53;;;7.50;87.40;;;;;;6158200;23;20012;-65
2022/01/04 09:42:59;;;;;;;8.48;5.78;;;7.60;86.90;;;;;;6183795;23;19997;-66
2022/01/04 09:45:25;;;;;;;8.93;5.80;;;7.70;86.20;;;;;;6184485;23;20001;-65
2022/01/04 09:47:50;;;;;;;12.43;6.53;;;7.70;86.60;;;;;;6184775;23;20009;-67
2022/01/04 09:50:16;;;;;;;9.00;5.55;;;7.80;86.30;;;;;;6184504;23;20008;-66
2022/01/04 09:52:49;;;;;;;10.90;6.00;;;7.90;85.90;;;;;;6184896;23;20032;-65
2022/01/04 09:55:17;;;;;;;9.57;5.97;;;8.00;84.90;;;;;;6184376;23;20031;-65
2022/01/04 09:57:44;;;;;;;9.57;5.55;;;8.20;85.90;;;;;;6184605;23;20440;-70
2022/01/04 10:00:15;;;;;;;10.82;6.28;;;8.80;87.40;;;;;;6184488;23;20005;-65
2022/01/04 10:02:46;;;;;;;10.65;6.15;;;9.70;86.20;;;;;;6184572;23;20001;-66
2022/01/04 10:05:23;;;;;;;9.77;5.65;;;10.40;81.60;;;;;;6184298;23;20001;-65
2022/01/04 10:08:00;;;;;;;11.18;5.80;;;10.60;76.90;;;;;;6184236;23;20480;-65
2022/01/04 10:10:26;;;;;;;25.25;11.00;;;10.60;75.90;;;;;;6184264;23;20008;-66
2022/01/04 10:13:00;;;;;;;9.35;5.40;;;10.40;75.60;;;;;;6157685;23;20006;-65
2022/01/04 10:15:47;;;;;;;8.45;4.90;;;10.30;74.40;;;;;;6184453;23;20024;-65
2022/01/04 10:18:13;;;;;;;7.80;4.53;;;10.10;74.40;;;;;;6158177;23;20036;-65
2022/01/04 10:20:46;;;;;;;7.47;4.30;;;9.90;74.00;;;;;;6184006;23;20310;-65
2022/01/04 10:23:18;;;;;;;8.63;4.38;;;9.80;75.40;;;;;;6184008;23;20005;-66
2022/01/04 10:25:47;;;;;;;8.35;4.43;;;9.80;75.20;;;;;;6184091;23;20024;-66
2022/01/04 10:28:30;;;;;;;7.82;4.63;;;9.80;74.10;;;;;;6184648;23;20731;-65
2022/01/04 10:31:00;;;;;;;7.88;4.60;;;9.80;73.80;;;;;;6184053;23;20028;-65
2022/01/04 10:33:27;;;;;;;11.93;5.53;;;9.80;74.30;;;;;;6184123;23;20024;-66
2022/01/04 10:35:55;;;;;;;10.25;5.10;;;9.80;74.60;;;;;;6184473;23;20005;-66
2022/01/04 10:38:26;;;;;;;10.10;4.95;;;9.90;74.80;;;;;;6184016;23;20007;-66
2022/01/04 10:41:00;;;;;;;8.85;4.90;;;9.90;73.30;;;;;;6157405;23;20005;-65
2022/01/04 10:43:31;;;;;;;8.18;4.72;;;9.80;72.40;;;;;;6183322;23;20336;-66
2022/01/04 10:45:59;;;;;;;8.07;4.95;;;9.70;72.30;;;;;;6183591;23;20005;-66
2022/01/04 10:48:29;;;;;;;9.20;4.95;;;9.50;72.60;;;;;;6183838;23;20004;-65
2022/01/04 10:51:03;;;;;;;8.73;5.35;;;9.40;73.10;;;;;;6183233;23;20068;-65
2022/01/04 10:53:34;;;;;;;9.98;5.30;;;9.20;73.90;;;;;;6183781;23;20320;-65
2022/01/04 10:56:03;;;;;;;11.38;6.00;;;9.10;74.00;;;;;;6183259;23;20008;-66
2022/01/04 10:58:36;;;;;;;10.55;5.88;;;9.00;74.80;;;;;;6157154;23;20425;-65
2022/01/04 11:01:14;;;;;;;9.80;5.40;;;8.90;74.60;;;;;;6183425;23;20051;-65
2022/01/04 11:03:48;;;;;;;10.60;5.55;;;8.90;74.80;;;;;;6183341;23;20009;-65
2022/01/04 11:06:26;;;;;;;10.27;6.15;;;8.80;75.30;;;;;;6183779;23;20001;-65
2022/01/04 11:08:52;;;;;;;10.40;6.13;;;8.80;75.50;;;;;;6157423;23;20409;-64
2022/01/04 11:11:19;;;;;;;9.90;5.80;;;9.00;75.40;;;;;;6182822;23;20008;-66
2022/01/04 11:13:44;;;;;;;10.20;6.45;;;9.20;74.90;;;;;;6183473;23;20005;-66
2022/01/04 11:16:10;;;;;;;11.90;6.75;;;9.30;74.40;;;;;;6183640;23;20754;-65
2022/01/04 11:18:40;;;;;;;9.35;6.13;;;9.30;73.10;;;;;;6183771;23;20019;-64
2022/01/04 11:21:14;;;;;;;9.80;6.18;;;9.70;74.80;;;;;;6183462;23;20424;-66
2022/01/04 11:23:42;;;;;;;9.38;5.55;;;10.50;73.30;;;;;;6183751;23;20427;-66
2022/01/04 11:26:09;;;;;;;9.18;5.40;;;11.40;71.10;;;;;;6183625;23;20001;-65
2022/01/04 11:28:39;;;;;;;9.70;5.38;;;12.10;67.50;;;;;;6182959;23;20040;-67
2022/01/04 11:31:18;;;;;;;12.13;5.55;;;12.30;65.70;;;;;;6183152;23;20000;-65
2022/01/04 11:34:12;;;;;;;9.25;5.72;;;12.00;63.70;;;;;;6203940;23;20024;-65
2022/01/04 11:36:47;;;;;;;8.00;4.97;;;11.50;64.00;;;;;;6213242;23;20316;-65
2022/01/04 11:39:46;;;;;;;9.30;5.20;;;11.00;64.40;;;;;;6213218;23;20004;-65
2022/01/04 11:42:36;;;;;;;9.02;4.80;;;10.60;64.90;;;;;;6148280;23;20487;-66
2022/01/04 11:45:08;;;;;;;9.93;5.15;;;10.30;66.00;;;;;;6213398;23;20392;-66
2022/01/04 11:47:35;;;;;;;9.05;5.40;;;9.90;67.20;;;;;;6212030;23;20000;-66
2022/01/04 11:50:27;;;;;;;12.27;5.38;;;9.80;67.70;;;;;;6213469;23;20068;-64
2022/01/04 11:52:55;;;;;;;10.50;5.50;;;9.80;67.60;;;;;;6211692;23;20095;-64
2022/01/04 11:55:36;;;;;;;8.98;5.40;;;10.20;68.60;;;;;;6213365;23;20035;-64
2022/01/04 11:58:17;;;;;;;10.57;5.50;;;11.00;67.50;;;;;;6213403;23;20004;-64
2022/01/04 12:00:57;;;;;;;8.73;5.53;;;11.70;65.40;;;;;;6212821;23;20328;-63
2022/01/04 12:03:38;;;;;;;9.93;5.20;;;11.90;63.50;;;;;;6213550;23;20083;-63
2022/01/04 12:06:05;;;;;;;9.20;5.13;;;11.70;63.00;;;;;;6214273;23;20434;-64
2022/01/04 12:08:51;;;;;;;10.18;6.15;;;11.20;63.80;;;;;;6215195;23;20001;-64
2022/01/04 12:11:22;;;;;;;10.00;5.50;;;10.80;64.70;;;;;;6215731;23;20001;-66
2022/01/04 12:14:03;;;;;;;9.48;5.47;;;10.40;65.90;;;;;;6215450;23;20071;-65
2022/01/04 12:16:32;;;;;;;9.68;5.85;;;9.90;67.40;;;;;;6215526;23;20005;-66
2022/01/04 12:18:59;;;;;;;10.65;5.82;;;9.60;68.40;;;;;;6215499;23;20005;-65
2022/01/04 12:21:31;;;;;;;10.02;5.95;;;9.30;69.20;;;;;;6214238;23;20005;-65
2022/01/04 12:23:57;;;;;;;10.48;5.97;;;9.10;70.10;;;;;;6215401;23;20001;-65
2022/01/04 12:26:32;;;;;;;9.98;5.30;;;9.00;70.70;;;;;;6215445;23;20068;-66
2022/01/04 12:28:58;;;;;;;9.98;5.38;;;8.80;70.90;;;;;;6215829;23;20001;-64
2022/01/04 12:31:50;;;;;;;10.73;5.75;;;8.70;71.40;;;;;;6212814;23;20439;-65
2022/01/04 12:34:33;;;;;;;9.80;5.38;;;8.50;71.70;;;;;;6213502;23;20013;-64
2022/01/04 12:37:01;;;;;;;11.27;5.70;;;8.40;71.70;;;;;;6215185;23;20003;-65
2022/01/04 12:39:39;;;;;;;9.52;5.57;;;8.30;72.40;;;;;;6213174;23;20005;-65
2022/01/04 12:42:06;;;;;;;11.30;5.75;;;8.10;73.00;;;;;;6215528;23;20043;-67
2022/01/04 12:44:32;;;;;;;11.18;5.63;;;8.00;73.40;;;;;;6215034;23;20325;-65
2022/01/04 12:46:59;;;;;;;10.65;5.80;;;7.90;73.80;;;;;;6215388;23;19996;-64
2022/01/04 12:49:28;;;;;;;12.27;6.65;;;7.80;74.30;;;;;;6215130;23;20355;-64
2022/01/04 12:52:03;;;;;;;13.63;7.65;;;7.80;74.80;;;;;;6215810;23;20000;-64
2022/01/04 12:54:47;;;;;;;11.88;7.38;;;7.80;74.90;;;;;;6215473;23;20324;-64
2022/01/04 12:57:18;;;;;;;14.07;8.10;;;7.80;75.00;;;;;;6215546;23;20024;-65
2022/01/04 12:59:49;;;;;;;12.68;7.55;;;7.90;75.20;;;;;;6215553;23;20470;-64
2022/01/04 13:02:15;;;;;;;12.45;7.22;;;7.90;75.30;;;;;;6214837;23;20007;-65
2022/01/04 13:04:45;;;;;;;12.43;7.45;;;7.90;75.50;;;;;;6215608;23;20000;-65
2022/01/04 13:07:17;;;;;;;9.30;5.97;;;7.90;75.70;;;;;;6215253;23;19993;-66
2022/01/04 13:09:47;;;;;;;11.88;6.43;;;7.90;75.60;;;;;;6215179;23;19997;-64
2022/01/04 13:12:13;;;;;;;10.98;6.15;;;7.90;75.60;;;;;;6215191;23;20004;-65
2022/01/04 13:14:38;;;;;;;9.43;5.70;;;7.90;75.80;;;;;;6215228;23;20443;-65
2022/01/04 13:17:09;;;;;;;10.05;5.47;;;7.90;75.90;;;;;;6215238;23;20001;-64
2022/01/04 13:19:45;;;;;;;12.23;5.90;;;7.90;76.40;;;;;;6214263;23;20011;-66
2022/01/04 13:22:17;;;;;;;8.65;5.47;;;7.90;76.20;;;;;;6214886;23;20391;-65
2022/01/04 13:24:42;;;;;;;10.00;5.53;;;7.90;76.40;;;;;;6214620;23;19996;-65
2022/01/04 13:27:31;;;;;;;11.15;5.60;;;8.10;77.00;;;;;;6214708;23;20003;-67
2022/01/04 13:30:00;;;;;;;9.80;5.35;;;8.30;76.30;;;;;;6215078;23;20324;-65
2022/01/04 13:32:53;;;;;;;10.35;5.63;;;8.50;76.40;;;;;;6204968;23;20024;-66
2022/01/04 13:35:38;;;;;;;9.30;5.60;;;8.90;75.90;;;;;;6179157;23;20316;-65
2022/01/04 13:38:08;;;;;;;10.80;7.07;;;9.20;74.90;;;;;;6184586;23;20005;-65
2022/01/04 13:40:36;;;;;;;10.18;6.10;;;9.40;74.60;;;;;;6184893;23;20008;-65
2022/01/04 13:43:06;;;;;;;10.32;6.35;;;9.40;73.50;;;;;;6184654;23;20080;-65
2022/01/04 13:45:47;;;;;;;10.05;6.03;;;9.20;73.30;;;;;;6184827;23;20009;-65
2022/01/04 13:48:24;;;;;;;11.85;6.43;;;9.10;73.40;;;;;;6184829;23;19997;-64
2022/01/04 13:50:50;;;;;;;15.93;9.73;;;8.90;73.50;;;;;;6184560;23;20076;-65
2022/01/04 13:53:21;;;;;;;16.27;9.85;;;8.70;73.90;;;;;;6184430;23;20349;-65
2022/01/04 13:55:59;;;;;;;21.52;13.48;;;8.50;74.30;;;;;;6184675;23;20001;-64
2022/01/04 13:58:38;;;;;;;17.65;12.00;;;8.40;74.70;;;;;;6184614;23;20009;-65
2022/01/04 14:01:37;;;;;;;19.02;10.93;;;8.20;75.20;;;;;;6184447;23;20000;-65
2022/01/04 14:04:08;;;;;;;14.80;9.50;;;8.10;75.80;;;;;;6183396;23;20005;-63
2022/01/04 14:06:37;;;;;;;17.98;9.45;;;8.00;76.10;;;;;;6183745;23;20028;-66
2022/01/04 14:09:16;;;;;;;19.15;11.48;;;7.90;76.30;;;;;;6184193;23;20001;-67
2022/01/04 14:11:44;;;;;;;31.83;19.95;;;7.80;76.50;;;;;;6157779;23;20325;-65
2022/01/04 14:14:11;;;;;;;48.25;29.08;;;7.80;76.80;;;;;;6184015;23;20001;-65
2022/01/04 14:16:44;;;;;;;39.63;26.20;;;7.70;77.00;;;;;;6184084;23;20088;-65
2022/01/04 14:19:14;;;;;;;;;;;7.70;77.20;;;;;;6184464;23;20005;-65
2022/01/04 14:21:53;;;;;;;38.67;24.73;;;7.60;77.50;;;;;;6184694;23;20561;-64
2022/01/04 14:24:40;;;;;;;48.10;28.98;;;7.60;77.60;;;;;;6183809;23;20004;-67
2022/01/04 14:27:09;;;;;;;55.22;31.92;;;7.60;78.00;;;;;;6157883;23;20381;-65
2022/01/04 14:29:50;;;;;;;59.45;32.00;;;7.50;78.10;;;;;;6183973;23;20004;-64
2022/01/04 14:32:25;;;;;;;55.78;30.05;;;7.50;78.30;;;;;;6186855;23;20428;-65
2022/01/04 14:34:53;;;;;;;54.72;30.25;;;7.40;78.40;;;;;;6184137;23;20031;-65
2022/01/04 14:37:21;;;;;;;56.63;29.15;;;7.40;78.60;;;;;;6184322;23;20016;-65
2022/01/04 14:39:46;;;;;;;40.38;23.52;;;7.40;78.60;;;;;;6184048;23;20008;-64
2022/01/04 14:42:12;;;;;;;34.90;21.05;;;7.40;78.70;;;;;;6183936;23;20005;-64
2022/01/04 14:44:37;;;;;;;34.80;21.30;;;7.40;78.80;;;;;;6184044;23;20076;-65
2022/01/04 14:47:05;;;;;;;33.33;19.00;;;7.40;78.80;;;;;;6183884;23;19997;-65
2022/01/04 14:49:34;;;;;;;32.92;19.55;;;7.30;78.70;;;;;;6184091;23;20025;-66
2022/01/04 14:52:01;;;;;;;31.38;19.15;;;7.30;78.90;;;;;;6183933;23;19997;-65
2022/01/04 14:54:27;;;;;;;33.45;21.67;;;7.30;79.00;;;;;;6183934;23;20008;-66
2022/01/04 14:56:53;;;;;;;36.85;23.70;;;7.20;79.10;;;;;;6183978;23;20001;-66
2022/01/04 14:59:19;;;;;;;32.55;21.60;;;7.10;79.40;;;;;;6183847;23;20383;-65
2022/01/04 15:01:44;;;;;;;33.97;21.55;;;6.90;79.40;;;;;;6183826;23;20001;-66
2022/01/04 15:04:11;;;;;;;29.23;19.38;;;6.80;79.70;;;;;;6183935;23;20080;-65
2022/01/04 15:06:38;;;;;;;28.48;18.27;;;6.70;80.30;;;;;;6183729;23;20001;-65
2022/01/04 15:09:04;;;;;;;30.85;20.08;;;6.50;80.60;;;;;;6183283;23;19997;-65
2022/01/04 15:11:30;;;;;;;31.95;19.98;;;6.40;81.20;;;;;;6182712;23;20025;-65
2022/01/04 15:13:57;;;;;;;32.10;22.58;;;6.30;81.40;;;;;;6182471;23;20413;-67
2022/01/04 15:16:24;;;;;;;28.20;19.52;;;6.30;82.00;;;;;;6182616;23;20005;-64
2022/01/04 15:18:50;;;;;;;29.98;19.73;;;6.20;82.20;;;;;;6182079;23;20001;-66
2022/01/04 15:21:17;;;;;;;28.08;18.48;;;6.10;82.40;;;;;;6155652;23;20012;-66
2022/01/04 15:23:43;;;;;;;27.00;18.40;;;6.00;82.70;;;;;;6182372;23;20004;-64
2022/01/04 15:26:09;;;;;;;27.40;18.27;;;5.90;83.00;;;;;;6182497;23;20001;-66
2022/01/04 15:28:34;;;;;;;27.77;19.60;;;5.90;83.60;;;;;;6182420;23;20001;-65
2022/01/04 15:31:02;;;;;;;33.28;21.88;;;5.80;83.60;;;;;;6182565;23;20450;-64
2022/01/04 15:33:28;;;;;;;28.83;20.13;;;5.90;84.10;;;;;;6182751;23;20021;-65
2022/01/04 15:35:55;;;;;;;27.63;19.85;;;5.80;84.00;;;;;;6182826;23;20048;-65
2022/01/04 15:38:21;;;;;;;29.30;18.35;;;5.70;84.10;;;;;;6182793;23;20424;-65
2022/01/04 15:40:47;;;;;;;29.13;19.40;;;5.70;84.50;;;;;;6182425;23;20008;-66
2022/01/04 15:43:12;;;;;;;28.23;18.42;;;5.60;85.00;;;;;;6182632;23;20067;-65
2022/01/04 15:45:38;;;;;;;27.17;18.30;;;5.60;85.40;;;;;;6182556;23;20421;-65
2022/01/04 15:48:04;;;;;;;28.80;19.30;;;5.50;85.60;;;;;;6182549;23;20001;-64
2022/01/04 15:50:30;;;;;;;26.55;17.88;;;5.50;85.90;;;;;;6182277;23;20009;-65
2022/01/04 15:52:56;;;;;;;28.73;18.13;;;5.40;86.30;;;;;;6182531;23;20447;-65
2022/01/04 15:55:24;;;;;;;26.42;17.58;;;5.40;87.00;;;;;;6182706;23;20001;-65
2022/01/04 15:57:50;;;;;;;26.05;16.05;;;5.40;87.40;;;;;;6182637;23;20051;-65
2022/01/04 16:00:16;;;;;;;24.30;16.60;;;5.30;87.30;;;;;;6182536;23;20015;-65
2022/01/04 16:02:42;;;;;;;25.40;16.00;;;5.30;87.90;;;;;;6182228;23;20313;-65
2022/01/04 16:05:09;;;;;;;24.98;16.80;;;5.20;88.10;;;;;;6182510;23;20003;-65
2022/01/04 16:07:35;;;;;;;27.92;19.27;;;5.20;88.00;;;;;;6156435;23;19998;-65
2022/01/04 16:10:03;;;;;;;29.30;19.77;;;5.20;88.70;;;;;;6182449;23;20036;-64
2022/01/04 16:12:28;;;;;;;34.42;21.67;;;5.10;88.50;;;;;;6182341;23;20005;-65
2022/01/04 16:14:57;;;;;;;30.98;21.70;;;5.10;88.60;;;;;;6182391;23;20008;-65
2022/01/04 16:22:39;;;;;;;28.77;18.25;;;5.10;89.80;;;;;;6183676;23;20096;-64
2022/01/04 16:25:05;;;;;;;25.67;17.35;;;5.00;89.70;;;;;;6183709;23;20028;-65
2022/01/04 16:27:32;;;;;;;26.20;17.70;;;5.00;90.00;;;;;;6183485;23;20001;-67
2022/01/04 16:29:59;;;;;;;25.38;17.02;;;5.00;90.10;;;;;;6183696;23;20028;-65
2022/01/04 16:32:24;;;;;;;27.20;18.08;;;5.00;90.20;;;;;;6183589;23;20023;-65
2022/01/04 16:34:51;;;;;;;23.85;17.10;;;5.00;90.50;;;;;;6183572;23;20077;-64
2022/01/04 16:37:18;;;;;;;26.58;17.55;;;5.00;90.50;;;;;;6183754;23;20072;-65
2022/01/04 16:39:44;;;;;;;27.40;17.80;;;5.10;90.70;;;;;;6156383;23;20017;-63
2022/01/04 16:42:09;;;;;;;34.85;20.15;;;5.10;90.60;;;;;;6183198;23;20052;-63
2022/01/04 16:44:35;;;;;;;30.77;18.80;;;5.10;90.60;;;;;;6182915;23;20009;-64
2022/01/04 16:47:01;;;;;;;34.33;21.05;;;5.10;90.50;;;;;;6182583;23;20419;-66
2022/01/04 16:49:27;;;;;;;35.70;23.15;;;5.20;90.60;;;;;;6183368;23;20068;-64
2022/01/04 16:51:56;;;;;;;36.38;23.95;;;5.20;90.60;;;;;;6183719;23;20006;-66
2022/01/04 16:54:22;;;;;;;31.60;22.60;;;5.20;90.50;;;;;;6185319;23;20072;-64
2022/01/04 16:56:47;;;;;;;33.05;22.13;;;5.30;90.40;;;;;;6185086;23;20083;-65
2022/01/04 16:59:15;;;;;;;30.63;20.95;;;5.30;90.40;;;;;;6185076;23;20051;-65
2022/01/04 17:01:44;;;;;;;31.95;21.85;;;5.20;90.30;;;;;;6184955;23;20479;-65
2022/01/04 17:04:11;;;;;;;33.33;21.63;;;5.10;90.20;;;;;;6184923;23;20007;-66
2022/01/04 17:06:37;;;;;;;31.80;21.80;;;5.10;90.20;;;;;;6184947;23;20064;-65
2022/01/04 17:09:04;;;;;;;35.15;22.30;;;5.00;90.30;;;;;;6185001;23;20031;-65
2022/01/04 17:11:36;;;;;;;35.75;23.77;;;4.90;90.30;;;;;;6184688;23;20004;-65
2022/01/04 17:16:46;;;;;;;50.72;29.70;;;4.80;90.70;;;;;;6184788;23;20059;-65
2022/01/04 17:19:11;;;;;;;45.15;29.80;;;4.80;90.90;;;;;;6184711;23;20037;-65
2022/01/04 17:21:43;;;;;;;39.50;26.58;;;4.70;91.10;;;;;;6158552;23;20002;-64
2022/01/04 17:24:08;;;;;;;44.53;26.85;;;4.70;91.30;;;;;;6185050;23;20005;-64
2022/01/04 17:26:34;;;;;;;42.17;28.25;;;4.70;91.40;;;;;;6184403;23;20324;-65
2022/01/04 17:29:00;;;;;;;44.35;30.45;;;4.70;91.60;;;;;;6184664;23;20001;-64
2022/01/04 17:31:26;;;;;;;46.33;30.85;;;4.70;91.70;;;;;;6184568;23;20005;-65
2022/01/04 17:33:51;;;;;;;44.17;30.67;;;4.60;91.50;;;;;;6184101;23;20393;-65
2022/01/04 17:36:17;;;;;;;43.17;28.67;;;4.60;91.60;;;;;;6183987;23;20009;-65
2022/01/04 17:38:43;;;;;;;39.63;27.80;;;4.60;91.80;;;;;;6184880;23;20011;-65
2022/01/04 17:41:09;;;;;;;40.78;27.48;;;4.50;91.70;;;;;;6157461;23;20012;-66
2022/01/04 17:43:35;;;;;;;45.30;29.35;;;4.50;91.90;;;;;;6184386;23;20452;-64
2022/01/04 17:46:01;;;;;;;43.38;27.27;;;4.50;92.00;;;;;;6184551;23;20023;-66
2022/01/04 17:48:28;;;;;;;37.25;25.88;;;4.40;91.90;;;;;;6184679;23;20437;-65
2022/01/04 17:50:54;;;;;;;37.50;24.40;;;4.50;92.20;;;;;;6157963;23;20328;-65
2022/01/04 17:53:20;;;;;;;36.65;24.10;;;4.50;92.20;;;;;;6184105;23;20433;-63
2022/01/04 17:55:46;;;;;;;37.05;24.33;;;4.40;92.30;;;;;;6184591;23;20132;-65
2022/01/04 17:58:12;;;;;;;37.03;23.40;;;4.40;92.70;;;;;;6184350;23;20299;-65
2022/01/04 18:00:39;;;;;;;37.15;23.77;;;4.40;92.50;;;;;;6184571;23;20028;-64
2022/01/04 18:03:06;;;;;;;32.60;23.70;;;4.40;92.60;;;;;;6182619;23;20076;-67
2022/01/04 18:05:33;;;;;;;34.78;23.00;;;4.40;92.50;;;;;;6182691;23;20487;-69
2022/01/04 18:07:59;;;;;;;33.60;22.70;;;4.40;92.50;;;;;;6184124;23;20380;-67
2022/01/04 18:10:26;;;;;;;32.72;21.60;;;4.30;92.60;;;;;;6184034;23;20020;-66
2022/01/04 18:12:52;;;;;;;30.83;20.67;;;4.30;92.70;;;;;;6184408;23;20332;-67
2022/01/04 18:15:20;;;;;;;29.40;20.63;;;4.30;92.80;;;;;;6184135;23;20005;-67
2022/01/04 18:17:46;;;;;;;27.90;19.67;;;4.30;93.00;;;;;;6157700;23;20048;-67
2022/01/04 18:20:12;;;;;;;30.45;20.55;;;4.40;92.90;;;;;;6184058;23;20352;-66
2022/01/04 18:22:38;;;;;;;31.45;21.83;;;4.30;93.00;;;;;;6157804;23;20298;-66
2022/01/04 18:25:06;;;;;;;34.72;22.75;;;4.30;92.90;;;;;;6158180;23;20032;-66
2022/01/04 18:27:31;;;;;;;34.28;22.67;;;4.30;93.00;;;;;;6184260;23;19997;-66
2022/01/04 18:29:57;;;;;;;32.50;22.85;;;4.30;93.00;;;;;;6184403;23;20005;-67
2022/01/04 18:32:23;;;;;;;31.67;22.73;;;4.30;93.00;;;;;;6184343;23;20079;-66
2022/01/04 18:34:48;;;;;;;33.13;22.20;;;4.30;93.00;;;;;;6184365;23;20013;-66
2022/01/04 18:37:14;;;;;;;30.45;20.70;;;4.30;93.20;;;;;;6184400;23;20412;-67
2022/01/04 18:39:40;;;;;;;31.38;20.33;;;4.30;93.40;;;;;;6184353;23;20028;-66
2022/01/04 18:42:06;;;;;;;29.95;20.27;;;4.20;93.40;;;;;;6184286;23;20009;-66
2022/01/04 18:44:32;;;;;;;29.13;19.33;;;4.20;93.40;;;;;;6183817;23;20001;-66